Latest Coastal Weather Observations for Cairns

IDQ60701

Issued at 1:22 pm EST Thursday 19 October 2017 (issued every 10 minutes, with the page automatically refreshed every 10 minutes)

About coastal observations | Map of coastal stations | Coastal observations for QLD | Marine services | Other Formats
Station Details ID: 031011 Name: CAIRNS AERO Lat: -16.87 Lon: 145.75 Height: 2.22 m
Data from the previous 72 hours. | See also: Recent months at Cairns
Date/Time
EST
Temp
°C
Wind Pressure Rain since
9am
mm
Weather Cloud Vis
km
Sea
Height
m
Swell
Dir  Spd
kts
Gust
kts
hPa Trend Height
m
Period
s
Dir
19/01:00pm 26.2 SSE 8 13 1013.1 - 0.6 - Mostly clear 10 - - - -
19/12:30pm 25.6 SSE 9 13 1013.4 - 0.6 - Mostly clear 10 - - - -
19/12:00pm 25.1 SE 10 14 1013.9 F 0.4 - Partly cloudy 10 - - - -
19/11:30am 22.9 SSE 7 10 1014.9 - 0.4 - Mostly clear 10 - - - -
19/11:00am 22.7 ENE 4 7 1015.0 - 0.4 - Mostly clear 10 - - - -
19/10:30am 21.9 NE 2 5 1015.3 - 0.4 - Mostly clear 10 - - - -
19/10:00am 20.6 SE 14 17 1014.9 - 0.4 - Mostly clear 10 - - - -
19/09:30am 19.7 SSE 12 16 1015.7 - 0.4 - Mostly clear 10 - - - -
19/09:00am 19.4 SSE 9 15 1015.7 R 135.2 Rain Cloudy 2 - - - -
19/08:58am 19.4 SE 10 15 1015.7 - 135.0 Showers Mostly clear 7 - - - -
19/08:50am 19.4 SSE 9 15 1015.2 - 131.4 Thunderstorm Mostly clear 1 - - - -
19/08:46am 19.4 WSW 6 9 1014.9 - 128.0 Thunderstorm Mostly clear 3 - - - -
19/08:30am 19.6 NNE 4 6 1015.3 - 127.2 Thunder Mostly clear 8 - - - -
19/08:00am 19.3 SE 7 10 1014.5 - 126.6 - Mostly clear 9 - - - -
19/07:52am 19.3 SSE 7 14 1015.2 - 126.4 Thunder Mostly clear 9 - - - -
19/07:30am 19.0 SSE 10 14 1014.0 - 125.6 - Mostly clear 9 - - - -
19/07:25am 19.0 SSE 10 16 1014.0 - 125.6 - Mostly clear 9 - - - -
19/07:00am 19.2 SSE 12 16 1013.4 - 125.2 - Partly cloudy 8 - - - -
19/06:30am 19.5 S 9 17 1012.3 - 124.4 Thunderstorm Partly cloudy 6 - - - -
19/06:00am 19.4 SSE 6 10 1013.4 R 122.2 Thunderstorm Cloudy 8 - - - -
19/05:30am 19.3 SSW 6 8 1012.5 - 121.0 Thunderstorm Mostly clear 8 - - - -
19/05:00am 18.7 SSE 15 19 1010.6 - 121.0 - Partly cloudy 10 - - - -
19/04:50am 18.8 SSE 11 18 1010.8 - 121.0 Thunderstorm Mostly clear 8 - - - -
19/04:30am 18.7 SSE 13 18 1011.8 - 120.8 Thunderstorm Mostly clear 8 - - - -
19/04:00am 18.8 SSE 16 23 1011.8 - 118.0 - Mostly clear 3 - - - -
19/03:58am 18.8 SSE 15 23 1011.9 - 117.8 Thunderstorm Mostly clear 2 - - - -
19/03:30am 18.8 SSE 15 20 1011.8 - 109.0 Thunderstorm Mostly clear 3 - - - -
19/03:00am 19.1 SSE 8 10 1012.2 R 97.2 Thunderstorm Cloudy 5 - - - -
19/02:50am 19.2 SSE 12 19 1011.5 - 95.6 Thunderstorm Partly cloudy 5 - - - -
19/02:30am 19.3 ESE 17 22 1011.3 - 92.4 Thunderstorm Partly cloudy 1 - - - -
19/02:00am 19.8 S 13 21 1010.5 - 75.6 - Mostly clear 2 - - - -
19/01:30am 21.0 S 15 26 1011.3 - 61.8 Thunderstorm Partly cloudy 2 - - - -
19/01:28am 21.2 SSE 15 26 1011.3 - 61.2 Thunderstorm Partly cloudy 2 - - - -
19/01:22am 21.1 S 15 26 1011.6 - 58.6 Thunderstorm Partly cloudy 2 - - - -
19/01:10am 21.0 S 16 25 1011.7 - 53.0 Thunderstorm Partly cloudy 2 - - - -
19/01:00am 20.9 S 18 31 1011.4 - 47.8 - Mostly clear 3 - - - -
19/12:56am 20.8 S 15 28 1011.0 - 46.8 Thunderstorm Mostly clear 3 - - - -
19/12:47am 21.2 SSW 13 23 1011.4 - 42.6 Thunderstorm Partly cloudy 2 - - - -
19/12:43am 21.5 SSW 13 23 1011.2 - 38.2 Thunderstorm Mostly clear 5 - - - -
19/12:30am 21.3 S 15 28 1011.5 - 36.0 Thunderstorm Mostly clear 10 - - - -
19/12:29am 21.3 S 15 28 1011.5 - 36.0 Thunderstorm Mostly clear 10 - - - -
19/12:16am 21.3 S 9 23 1012.2 - 35.6 Thunderstorm Mostly clear 8 - - - -
19/12:06am 21.4 SE 11 17 1013.2 - 35.0 Thunderstorm Mostly clear 5 - - - -
19/12:00am 21.8 SE 13 20 1013.0 F 33.8 Rain Cloudy 1 - - - -
 
Date/Time
EST
Temp
°C
Wind Pressure Rain since
9am
mm
Weather Cloud Vis
km
Sea
Height
m
Swell
Dir  Spd
kts
Gust
kts
hPa Trend Height
m
Period
s
Dir
18/11:47pm 22.1 SSE 7 11 1012.8 - 23.6 Showers Mostly clear 3 - - - -
18/11:36pm 22.2 S 8 14 1012.6 - 20.4 Thunderstorm Mostly clear 6 - - - -
18/11:30pm 22.6 S 7 10 1012.7 - 19.4 Thunderstorm Mostly clear 8 - - - -
18/11:24pm 22.5 SSW 8 17 1012.7 - 19.4 Thunderstorm Mostly clear 8 - - - -
18/11:00pm 22.7 SE 12 16 1013.3 - 18.4 - Mostly clear 10 - - - -
18/10:53pm 22.6 SE 12 15 1013.5 - 18.4 Showers Mostly clear 10 - - - -
18/10:43pm 22.9 SSE 11 15 1013.4 - 18.2 Showers Mostly clear 8 - - - -
18/10:34pm 23.0 SSE 11 15 1013.5 - 17.8 Showers Mostly clear 6 - - - -
18/10:30pm 23.3 SSE 11 15 1013.2 - 17.6 Showers Mostly clear 10 - - - -
18/10:00pm 23.3 SSE 8 11 1014.1 - 17.6 - Mostly clear 10 - - - -
18/09:30pm 23.3 SSE 7 9 1013.9 - 17.4 Showers Mostly clear 10 - - - -
18/09:00pm 23.5 SSE 8 10 1013.5 R 17.4 Rain Cloudy 10 - - - -
18/08:30pm 23.4 SSE 9 14 1013.0 - 17.4 Showers Mostly clear 10 - - - -
18/08:00pm 23.9 SSE 5 7 1012.5 - 17.2 - Mostly clear 10 - - - -
18/07:30pm 23.7 SSE 6 8 1012.2 - 17.2 Rain Mostly clear 10 - - - -
18/07:00pm 23.9 SE 7 9 1011.9 - 17.2 - Mostly clear 10 - - - -
18/06:30pm 23.7 SSE 7 11 1011.2 - 17.2 - Mostly clear 10 - - - -
18/06:20pm 23.5 SE 8 10 1011.1 - 17.2 - Mostly clear 10 - - - -
18/06:00pm 23.2 SE 8 16 1010.9 R 17.0 Showers Cloudy 4 - - - -
18/05:51pm 23.4 SSE 6 8 1010.9 - 16.2 Showers Mostly clear 3 - - - -
18/05:39pm 22.9 SE 4 6 1010.6 - 15.8 Showers Mostly clear 5 - - - -
18/05:30pm 22.8 NE 5 9 1010.6 - 13.2 Showers Mostly clear 2 - - - -
18/05:24pm 22.8 ENE 5 8 1010.5 - 5.4 Showers Mostly clear 1 - - - -
18/05:18pm 22.9 ESE 5 7 1010.5 - 3.6 Showers Mostly clear 5 - - - -
18/05:00pm 23.2 E 8 13 1010.4 - 3.0 - Mostly clear 6 - - - -
18/04:56pm 23.2 E 6 8 1010.3 - 2.8 Showers Mostly clear 4 - - - -
18/04:48pm 23.5 ESE 7 9 1009.9 - 2.4 - Mostly clear 6 - - - -
18/04:30pm 23.9 ESE 5 7 1009.8 - 2.2 Showers Mostly clear 4 - - - -
18/04:11pm 23.4 S 5 7 1009.6 - 1.8 Showers Mostly clear 8 - - - -
18/04:00pm 23.4 S 7 8 1009.7 - 1.6 - Mostly clear 3 - - - -
18/03:41pm 24.1 E 9 13 1009.5 - 0.6 Showers Mostly clear 3 - - - -
18/03:30pm 25.5 E 9 12 1009.5 - 0.0 Showers Mostly clear 4 - - - -
18/03:00pm 25.2 ESE 11 16 1009.2 R 0.0 Showers Cloudy 10 - - - -
18/02:30pm 26.0 E 13 17 1009.2 - 0.0 - Mostly clear 10 - - - -
18/02:00pm 27.8 E 11 17 1009.1 - 0.0 - Mostly clear 10 - - - -
18/01:30pm 29.4 ESE 12 17 1009.5 - 0.0 - Mostly clear 10 - - - -
18/01:00pm 29.2 SE 11 16 1009.5 - 0.0 - Mostly clear 10 - - - -
18/12:30pm 28.0 SE 11 14 1010.2 - 0.0 - Mostly clear 10 - - - -
18/12:00pm 27.0 ESE 12 16 1010.8 F 0.0 - Cloudy 10 - - - -
18/11:30am 26.7 SE 12 17 1011.2 - 0.0 - Mostly clear 10 - - - -
18/11:00am 25.5 SE 16 20 1011.5 - 0.0 - Mostly clear 10 - - - -
18/10:30am 25.5 SE 12 15 1011.9 - 0.0 - Mostly clear 10 - - - -
18/10:00am 25.5 SE 14 18 1012.0 - 0.0 - Mostly clear 10 - - - -
18/09:30am 25.0 SE 14 17 1012.1 - 0.0 - Mostly clear 10 - - - -
18/09:00am 25.2 SSE 13 17 1012.1 R 9.2 - Cloudy 10 - - - -
18/08:30am 24.3 S 7 10 1011.9 - 9.2 - Mostly clear 10 - - - -
18/08:00am 23.4 SSE 7 10 1011.8 - 9.2 - Mostly clear 10 - - - -
18/07:30am 22.9 SSE 7 10 1011.3 - 9.2 - Mostly clear 10 - - - -
18/07:00am 21.2 SE 8 11 1010.7 - 9.2 - Mostly clear 10 - - - -
18/06:30am 21.5 S 7 14 1010.0 - 9.2 - Mostly clear 10 - - - -
18/06:00am 21.4 S 10 15 1009.7 F 9.2 - Mostly clear 10 - - - -
18/05:30am 20.8 SE 8 12 1009.6 - 9.2 - Mostly clear 10 - - - -
18/05:00am 21.2 SSE 6 10 1009.3 - 9.2 - Mostly clear 10 - - - -
18/04:30am 21.0 SSE 6 10 1009.3 - 9.2 - Mostly clear 10 - - - -
18/04:00am 20.9 S 7 12 1009.1 - 9.2 - Mostly clear 10 - - - -
18/03:30am 21.0 SE 7 9 1009.4 - 9.2 - Mostly clear 10 - - - -
18/03:00am 21.2 S 6 9 1009.3 S 9.2 - Cloudy 10 - - - -
18/02:30am 21.1 SSE 7 9 1009.5 - 9.2 - Mostly clear 10 - - - -
18/02:00am 21.2 ENE 2 8 1009.7 - 9.2 - Mostly clear 10 - - - -
18/01:30am 20.9 S 7 10 1009.9 - 9.2 - Mostly clear 10 - - - -
18/01:00am 20.9 SE 8 12 1010.1 - 9.2 - Mostly clear 10 - - - -
18/12:30am 20.9 S 7 11 1010.5 - 8.8 Rain Mostly clear 10 - - - -
18/12:00am 21.1 SSE 7 11 1010.9 F 8.2 Showers Cloudy 10 - - - -
 
Date/Time
EST
Temp
°C
Wind Pressure Rain since
9am
mm
Weather Cloud Vis
km
Sea
Height
m
Swell
Dir  Spd
kts
Gust
kts
hPa Trend Height
m
Period
s
Dir
17/11:30pm 21.5 S 6 9 1011.3 - 8.0 Rain Mostly clear 10 - - - -
17/11:00pm 21.7 SSW 7 14 1011.6 - 7.8 - Mostly clear 10 - - - -
17/10:30pm 21.2 S 8 14 1011.6 - 7.8 Rain Mostly clear 10 - - - -
17/10:00pm 21.2 SSE 7 9 1012.0 - 7.4 - Mostly clear 10 - - - -
17/09:30pm 22.0 SSW 5 9 1011.6 - 6.8 Rain Mostly clear 10 - - - -
17/09:00pm 21.7 S 8 13 1011.1 F 6.8 - Mostly cloudy 10 - - - -
17/08:30pm 21.8 SSW 8 15 1011.3 - 6.8 Rain Mostly clear 10 - - - -
17/08:00pm 21.9 S 6 9 1010.9 - 6.8 - Mostly clear 10 - - - -
17/07:30pm 22.0 SSE 5 7 1010.7 - 6.8 Rain Mostly clear 10 - - - -
17/07:00pm 22.1 SSE 6 8 1010.3 - 6.6 - Mostly clear 9 - - - -
17/06:30pm 22.5 S 6 9 1010.2 - 5.6 Rain Mostly clear 9 - - - -
17/06:00pm 22.5 S 5 7 1009.7 R 5.4 Showers Cloudy 10 - - - -
17/05:30pm 22.6 SSW 2 5 1009.9 - 5.4 - Mostly clear 10 - - - -
17/05:00pm 23.3 SSE 5 7 1009.4 - 5.2 - Mostly clear 10 - - - -
17/04:30pm 23.8 SSE 6 7 1008.8 - 5.2 Rain Mostly clear 10 - - - -
17/04:00pm 24.3 SE 6 8 1008.6 - 5.0 - Mostly clear 10 - - - -
17/03:30pm 24.9 SSE 8 10 1008.2 - 5.0 - Mostly clear 10 - - - -
17/03:17pm 24.8 SE 9 12 1008.2 - 5.0 - Mostly clear 10 - - - -
17/03:00pm 24.7 SSE 9 11 1008.2 F 5.0 - Partly cloudy 10 - - - -
17/02:30pm 24.7 SSE 9 11 1008.6 - 5.0 - Mostly clear 10 - - - -
17/02:00pm 24.1 SSE 8 10 1009.0 - 5.0 - Mostly clear 10 - - - -
17/01:30pm 23.7 SSE 9 14 1009.0 - 5.0 - Mostly clear 10 - - - -
17/01:00pm 23.6 SSW 5 6 1010.4 - 5.0 - Mostly clear 10 - - - -
17/12:30pm 23.9 SSE 7 9 1010.9 - 5.0 - Mostly clear 10 - - - -
17/12:00pm 23.2 SSE 8 12 1011.4 F 5.0 Rain Cloudy 10 - - - -
17/11:30am 23.2 SSE 7 10 1012.1 - 5.0 Rain Mostly clear 8 - - - -
17/11:00am 22.8 S 5 7 1012.3 - 3.8 - Mostly clear 10 - - - -
17/10:30am 22.7 SW 4 7 1012.5 - 3.4 Rain Mostly clear 8 - - - -
17/10:20am 22.5 S 5 7 1012.4 - 3.2 Rain Mostly clear 7 - - - -
17/10:00am 22.6 SE 7 8 1012.6 - 1.8 - Mostly clear 6 - - - -
17/09:39am 22.5 SE 7 9 1012.8 - 1.0 Rain Mostly clear 6 - - - -
17/09:30am 22.7 SE 6 8 1012.9 - 0.6 Rain Mostly clear 7 - - - -
17/09:09am 22.8 SSE 6 9 1012.7 - 0.0 Rain Mostly clear 6 - - - -
17/09:00am 23.0 SSE 7 9 1012.7 R 1.0 Showers Cloudy 10 - - - -
17/08:30am 22.8 SSE 6 10 1012.5 - 1.0 - Mostly clear 10 - - - -
17/08:00am 22.7 SSE 11 16 1011.9 - 1.0 - Mostly clear 10 - - - -
17/07:30am 22.5 S 9 13 1011.5 - 1.0 Rain Mostly clear 10 - - - -
17/07:00am 22.4 SSE 10 14 1010.9 - 0.8 - Mostly clear 10 - - - -
17/06:30am 22.5 SSE 9 15 1010.5 - 0.8 - Mostly clear 10 - - - -
17/06:00am 22.8 S 10 19 1009.7 R 0.8 - Cloudy 10 - - - -
17/05:30am 23.2 S 10 16 1009.6 - 0.8 - Mostly clear 10 - - - -
17/05:00am 22.7 S 9 15 1009.2 - 0.8 - Mostly clear 10 - - - -
17/04:30am 22.7 SSE 9 14 1009.2 - 0.8 - Mostly clear 10 - - - -
17/04:00am 22.8 S 9 15 1009.0 - 0.8 - Mostly clear 10 - - - -
17/03:30am 22.5 SSE 7 9 1008.5 - 0.8 - Mostly clear 10 - - - -
17/03:00am 22.5 SSE 9 14 1008.3 F 0.8 - Partly cloudy 10 - - - -
17/02:30am 22.1 SE 10 12 1008.9 - 0.8 - Mostly clear 10 - - - -
17/02:00am 22.5 SSE 8 13 1009.5 - 0.8 - Mostly clear 10 - - - -
17/01:30am 22.8 SSE 9 12 1009.7 - 0.8 - Mostly clear 10 - - - -
17/01:00am 22.8 S 10 15 1010.2 - 0.8 - Mostly clear 10 - - - -
17/12:30am 23.1 S 9 15 1010.9 - 0.8 - Mostly clear 10 - - - -
17/12:00am 22.9 SSE 8 11 1011.3 F 0.8 - Mostly cloudy 10 - - - -
 
Date/Time
EST
Temp
°C
Wind Pressure Rain since
9am
mm
Weather Cloud Vis
km
Sea
Height
m
Swell
Dir  Spd
kts
Gust
kts
hPa Trend Height
m
Period
s
Dir
16/11:30pm 22.6 SSE 9 15 1011.5 - 0.8 - Mostly clear 10 - - - -
16/11:00pm 22.4 SSE 9 13 1011.4 - 0.8 - Mostly clear 10 - - - -
16/10:30pm 22.9 SSE 11 16 1011.1 - 0.8 - Mostly clear 10 - - - -
16/10:00pm 23.1 SSE 11 21 1011.3 - 0.8 - Mostly clear 10 - - - -
16/09:30pm 23.6 SSE 8 13 1011.3 - 0.8 - Mostly clear 10 - - - -
16/09:00pm 24.0 SSW 5 7 1011.2 S 0.8 - Cloudy 10 - - - -
16/08:30pm 23.6 S 8 11 1010.9 - 0.8 - Mostly clear 10 - - - -
16/08:00pm 23.8 S 8 14 1010.4 - 0.8 - Mostly clear 10 - - - -
16/07:30pm 23.5 S 8 12 1010.3 - 0.8 - Mostly clear 10 - - - -
16/07:00pm 23.1 SSE 7 9 1009.5 - 0.8 - Mostly clear 10 - - - -
16/06:30pm 23.2 SSE 5 6 1009.4 - 0.8 Rain Mostly clear 10 - - - -
16/06:00pm 23.2 S 6 8 1009.5 R 0.8 Rain Cloudy 10 - - - -
16/05:30pm 23.5 S 5 8 1009.5 - 0.6 Rain Mostly clear 10 - - - -
16/05:00pm 23.4 SE 3 5 1009.0 - 0.6 - Mostly clear 10 - - - -
16/04:30pm 23.5 S 3 5 1008.8 - 0.4 Rain Mostly clear 10 - - - -
16/04:00pm 23.9 SSE 6 9 1008.5 - 0.2 - Mostly clear 10 - - - -
16/03:30pm 25.7 ESE 7 9 1008.6 - 0.0 Rain Mostly clear 10 - - - -
16/03:00pm 26.5 ESE 8 10 1008.5 R 0.0 - Mostly cloudy 10 - - - -
16/02:30pm 27.2 ESE 8 12 1008.6 - 0.0 - Mostly clear 10 - - - -
16/02:00pm 27.6 ESE 8 10 1009.0 - 0.0 - Mostly clear 10 - - - -
16/01:30pm 27.7 SE 9 15 1009.3 - 0.0 - Mostly clear 10 - - - -

Other Formats:

Comma delimited format used in spreadsheet applications
http://www.bom.gov.au/fwo/IDQ60701/IDQ60701.94287.axf

JavaScript Object Notation format (JSON) in row-major order
http://www.bom.gov.au/fwo/IDQ60701/IDQ60701.94287.json